Archival Weather

Chicago O'Hare International

Chicago, Illinois (KORD)

Report from: Sunday, November 19, 2023 11:51 AM CST
Current time: Sunday, February 25, 2024 2:58 PM CST

Current weather – Weather history – Daily summaries
Weather forecast

Temperature11.7°C (53.1°F)
Dew point2.2°C (36.0°F)
Winds 8 kts (4.1 m/s, 9.2 mph) Northeast (50°)
Visibility10 mi. (16.1 km)
Clouds Few clouds 25,000 ft. (7,620 m)
Altimeter30.04 in.Hg (1017 mB)
Relative humidity52 %
Density altitude-429 ft. (-131 m)
Sea-level pressure101.8 kPa (1018 mB, 30.05 in.Hg)
Max temp last 6 hours12.2°C (54.0°F)
Min temp last 6 hours2.2°C (36.0°F)
Remarks Automated weather observing station with precipitation discriminator
Pressure falling more quickly
Flight conditions Visual Meteorological Conditions
Raw dataKORD 191751Z 05008KT 10SM FEW250 12/02 A3004 RMK AO2 SLP175 T01170022 10122 20022 58007
An error has occurred. This application may no longer respond until reloaded. Reload 🗙